createdAt,value
2019-02-23T00:01:03.131Z,76.86
2019-02-23T00:03:32.622Z,76.50
2019-02-23T00:06:02.430Z,76.61
2019-02-23T00:08:32.197Z,76.78
2019-02-23T00:11:04.217Z,77.01
2019-02-23T00:13:35.333Z,76.90
2019-02-23T00:16:05.462Z,76.82
2019-02-23T00:18:35.023Z,76.77
2019-02-23T00:21:04.574Z,77.07
2019-02-23T00:23:34.951Z,76.91
2019-02-23T00:26:05.191Z,76.07
2019-02-23T00:28:36.581Z,76.55
2019-02-23T00:31:06.610Z,76.53
2019-02-23T00:33:36.006Z,77.01
2019-02-23T00:36:06.031Z,76.85
2019-02-23T00:38:35.321Z,77.10
2019-02-23T00:41:05.268Z,77.24
2019-02-23T00:43:35.066Z,76.33
2019-02-23T00:46:05.811Z,76.81
2019-02-23T00:48:36.403Z,76.88
2019-02-23T00:51:06.631Z,76.77
2019-02-23T00:53:36.709Z,76.86
2019-02-23T00:56:06.492Z,77.01
2019-02-23T00:58:36.255Z,76.76
2019-02-23T01:01:06.547Z,77.02
2019-02-23T01:03:36.428Z,76.86
2019-02-23T01:06:06.401Z,76.76
2019-02-23T01:08:35.615Z,76.74
2019-02-23T01:11:04.941Z,76.98
2019-02-23T01:13:34.838Z,76.72
2019-02-23T01:16:04.991Z,76.79
2019-02-23T01:18:35.226Z,76.66
2019-02-23T01:21:06.524Z,76.33
2019-02-23T01:23:36.948Z,76.91
2019-02-23T01:26:06.809Z,77.32
2019-02-23T01:28:36.874Z,77.18
2019-02-23T01:31:06.152Z,77.61
2019-02-23T01:33:35.787Z,77.61
2019-02-23T01:36:05.297Z,77.87
2019-02-23T01:38:36.439Z,77.65
2019-02-23T01:41:07.414Z,77.44
2019-02-23T01:43:37.412Z,77.54
2019-02-23T01:46:06.991Z,77.56
2019-02-23T01:48:38.821Z,77.60
2019-02-23T01:51:08.149Z,77.59
2019-02-23T01:53:40.280Z,77.47
2019-02-23T01:56:10.217Z,77.20
2019-02-23T01:58:39.889Z,78.60
2019-02-23T02:01:09.481Z,78.69
2019-02-23T02:03:39.305Z,77.55
2019-02-23T02:06:09.185Z,76.96
2019-02-23T02:08:42.069Z,76.69
2019-02-23T02:11:13.310Z,77.47
2019-02-23T02:13:43.030Z,77.80
2019-02-23T02:16:13.188Z,77.22
2019-02-23T02:18:43.483Z,77.54
2019-02-23T02:21:13.368Z,78.01
2019-02-23T02:23:45.205Z,77.18
2019-02-23T02:26:15.873Z,77.02
2019-02-23T02:28:46.115Z,77.06
2019-02-23T02:31:15.774Z,76.99
2019-02-23T02:34:08.672Z,78.28
2019-02-23T02:36:38.147Z,78.05
2019-02-23T02:39:13.361Z,78.12
2019-02-23T02:41:43.546Z,77.77
2019-02-23T02:44:12.746Z,78.06
2019-02-23T02:46:42.800Z,77.95
2019-02-23T02:49:12.334Z,78.10
2019-02-23T02:51:42.466Z,78.28
2019-02-23T02:54:13.442Z,77.87
2019-02-23T02:56:43.207Z,78.37
2019-02-23T02:59:13.423Z,78.60
2019-02-23T03:01:43.323Z,77.73
2019-02-23T03:04:13.224Z,77.65
2019-02-23T03:06:43.569Z,78.01
2019-02-23T03:09:15.400Z,78.28
2019-02-23T03:11:46.053Z,78.13
2019-02-23T03:14:15.989Z,79.40
2019-02-23T03:16:45.911Z,79.11
2019-02-23T03:19:16.146Z,78.71
2019-02-23T03:21:45.661Z,78.30
2019-02-23T03:24:15.255Z,78.12
2019-02-23T03:26:46.691Z,78.21
2019-02-23T03:29:16.335Z,78.41
2019-02-23T03:31:45.905Z,79.05
2019-02-23T03:34:15.940Z,79.65
2019-02-23T03:36:45.533Z,80.15
2019-02-23T03:39:14.999Z,80.90
2019-02-23T03:41:44.542Z,80.11
2019-02-23T03:44:16.056Z,79.35
2019-02-23T03:46:47.220Z,79.20
2019-02-23T03:49:17.124Z,79.37
2019-02-23T03:51:47.239Z,79.63
2019-02-23T03:54:17.471Z,79.68
2019-02-23T03:56:48.098Z,79.67
2019-02-23T03:59:19.012Z,79.89
2019-02-23T04:01:49.407Z,79.15
2019-02-23T04:04:19.732Z,79.02
2019-02-23T04:06:49.632Z,78.68
2019-02-23T04:09:18.853Z,78.19
2019-02-23T04:11:48.979Z,76.24
2019-02-23T04:14:19.123Z,74.36
2019-02-23T04:16:50.150Z,74.12
2019-02-23T04:19:20.447Z,72.49
2019-02-23T04:21:49.961Z,72.82
2019-02-23T04:24:19.122Z,72.56
2019-02-23T04:26:48.805Z,73.04
2019-02-23T04:29:18.704Z,72.81
2019-02-23T04:31:48.452Z,72.16
2019-02-23T04:34:20.210Z,72.16
2019-02-23T04:36:49.415Z,72.33
2019-02-23T04:39:19.124Z,71.53
2019-02-23T04:41:49.185Z,71.34
2019-02-23T04:44:19.312Z,71.51
2019-02-23T04:46:48.999Z,71.41
2019-02-23T04:49:18.387Z,71.09
2019-02-23T04:51:50.115Z,71.23
2019-02-23T04:54:20.188Z,70.03
2019-02-23T04:56:49.683Z,70.91
2019-02-23T04:59:18.819Z,71.25
2019-02-23T05:01:48.347Z,71.60
2019-02-23T05:04:17.695Z,71.82
2019-02-23T05:06:47.941Z,71.81
2019-02-23T05:09:20.312Z,72.35
2019-02-23T05:11:51.584Z,72.41
2019-02-23T05:14:22.282Z,72.12
2019-02-23T05:16:51.655Z,72.29
2019-02-23T05:19:21.999Z,72.56
2019-02-23T05:21:51.331Z,73.75
2019-02-23T05:24:22.963Z,73.88
2019-02-23T05:26:53.190Z,73.78
2019-02-23T05:29:22.878Z,73.07
2019-02-23T05:31:52.961Z,73.10
2019-02-23T05:34:23.577Z,72.92
2019-02-23T05:36:53.425Z,73.02
2019-02-23T05:39:25.711Z,73.18
2019-02-23T05:41:56.349Z,72.29
2019-02-23T05:44:27.397Z,71.86
2019-02-23T05:46:57.607Z,71.95
2019-02-23T05:49:28.001Z,72.14
2019-02-23T05:51:58.208Z,71.89
2019-02-23T05:54:29.210Z,72.05
2019-02-23T05:56:59.384Z,71.96
2019-02-23T05:59:29.239Z,71.62
2019-02-23T06:02:01.607Z,72.30
2019-02-23T06:04:34.801Z,72.53
2019-02-23T06:07:06.610Z,72.64
2019-02-23T06:09:36.309Z,72.19
2019-02-23T06:12:06.522Z,71.85
2019-02-23T06:14:36.411Z,71.87
2019-02-23T06:17:06.452Z,72.28
2019-02-23T06:19:37.927Z,71.03
2019-02-23T06:22:09.244Z,71.46
2019-02-23T06:24:39.359Z,72.05
2019-02-23T06:27:08.806Z,72.02
2019-02-23T06:29:38.269Z,72.06
2019-02-23T06:32:08.340Z,71.94
2019-02-23T06:34:37.611Z,72.16
2019-02-23T06:37:07.322Z,72.47
2019-02-23T06:39:39.029Z,73.29
2019-02-23T06:42:09.273Z,73.90
2019-02-23T06:44:38.779Z,74.40
2019-02-23T06:47:09.268Z,74.16
2019-02-23T06:49:39.639Z,74.41
2019-02-23T06:52:09.843Z,74.64
2019-02-23T06:54:39.528Z,74.13
2019-02-23T06:57:11.158Z,74.30
2019-02-23T06:59:41.654Z,74.27
2019-02-23T07:02:11.570Z,72.32
2019-02-23T07:04:41.590Z,72.96
2019-02-23T07:07:11.940Z,73.20
2019-02-23T07:09:41.325Z,73.39
2019-02-23T07:12:12.668Z,73.13
2019-02-23T07:14:43.774Z,73.00
2019-02-23T07:17:13.944Z,73.17
2019-02-23T07:19:43.315Z,73.27
2019-02-23T07:22:15.643Z,73.10
2019-02-23T07:24:44.202Z,72.57
2019-02-23T07:27:16.305Z,72.14
2019-02-23T07:29:46.517Z,71.29
2019-02-23T07:32:16.833Z,71.86
2019-02-23T07:34:46.973Z,70.84
2019-02-23T07:37:16.603Z,70.79
2019-02-23T07:39:45.930Z,70.85
2019-02-23T07:42:15.947Z,70.69
2019-02-23T07:44:47.048Z,70.45
2019-02-23T07:47:17.403Z,69.41
2019-02-23T07:49:46.770Z,69.14
2019-02-23T07:52:25.697Z,68.39
2019-02-23T07:54:47.702Z,68.22
2019-02-23T07:57:17.819Z,67.60
2019-02-23T07:59:49.781Z,68.45
2019-02-23T08:02:20.478Z,68.61
2019-02-23T08:04:50.772Z,67.75
2019-02-23T08:07:20.520Z,67.41
2019-02-23T08:09:50.508Z,66.61
2019-02-23T08:12:20.641Z,69.61
2019-02-23T08:14:50.718Z,66.39
2019-02-23T08:17:22.312Z,66.26
2019-02-23T08:19:52.552Z,65.56
2019-02-23T08:22:22.194Z,64.58
2019-02-23T08:24:52.374Z,65.12
2019-02-23T08:27:22.749Z,63.59
2019-02-23T08:29:52.106Z,63.46
2019-02-23T08:32:23.623Z,63.56
2019-02-23T08:34:53.302Z,62.41
2019-02-23T08:37:23.242Z,61.42
2019-02-23T08:39:53.515Z,58.25
2019-02-23T08:42:23.619Z,60.11
2019-02-23T08:44:52.766Z,59.68
2019-02-23T08:47:22.830Z,56.65
2019-02-23T08:49:54.234Z,54.69
2019-02-23T08:52:23.816Z,53.40
2019-02-23T08:54:53.549Z,52.92
2019-02-23T08:57:22.890Z,48.59
2019-02-23T08:59:52.530Z,50.76
2019-02-23T09:02:22.399Z,49.82
2019-02-23T09:04:52.251Z,48.49
2019-02-23T09:07:24.190Z,47.72
2019-02-23T09:09:54.371Z,47.24
2019-02-23T09:12:23.587Z,44.41
2019-02-23T09:14:53.744Z,41.52
2019-02-23T09:17:23.311Z,36.60
2019-02-23T09:19:53.116Z,34.03
2019-02-23T09:22:23.084Z,33.03
2019-02-23T09:24:53.324Z,36.42
2019-02-23T09:27:25.348Z,36.86
2019-02-23T09:29:55.507Z,38.16
2019-02-23T09:32:25.060Z,39.12
2019-02-23T09:34:55.381Z,39.70
2019-02-23T09:37:24.588Z,37.89
2019-02-23T09:39:54.314Z,31.96
2019-02-23T09:42:25.869Z,34.64
2019-02-23T09:44:56.405Z,33.82
2019-02-23T09:47:25.879Z,35.95
2019-02-23T09:49:55.179Z,32.37
2019-02-23T09:52:25.336Z,34.94
2019-02-23T09:54:54.992Z,39.77
2019-02-23T09:57:24.993Z,38.33
2019-02-23T09:59:56.418Z,36.28
2019-02-23T10:02:26.421Z,36.05
2019-02-23T10:04:55.805Z,34.33
2019-02-23T10:07:25.908Z,30.22
2019-02-23T10:09:55.203Z,30.22
2019-02-23T10:12:24.704Z,29.15
2019-02-23T10:14:53.992Z,26.59
2019-02-23T10:17:26.022Z,25.36
2019-02-23T10:19:56.198Z,25.30
2019-02-23T10:22:26.235Z,26.85
2019-02-23T10:24:56.013Z,32.47
2019-02-23T10:27:25.373Z,32.50
2019-02-23T10:29:54.529Z,33.95
2019-02-23T10:32:24.027Z,34.16
2019-02-23T10:34:55.955Z,31.76
2019-02-23T10:37:26.294Z,33.78
2019-02-23T10:39:55.806Z,30.86
2019-02-23T10:42:26.207Z,30.46
2019-02-23T10:44:55.455Z,30.46
2019-02-23T10:47:25.632Z,28.75
2019-02-23T10:49:55.609Z,26.92
2019-02-23T10:52:26.211Z,29.42
2019-02-23T10:54:56.656Z,29.06
2019-02-23T10:57:26.678Z,32.28
2019-02-23T10:59:56.054Z,32.66
2019-02-23T11:02:26.151Z,30.36
2019-02-23T11:04:55.823Z,34.47
2019-02-23T11:07:25.088Z,37.15
2019-02-23T11:09:55.979Z,32.36
2019-02-23T11:12:26.261Z,36.51
2019-02-23T11:14:56.124Z,36.93
2019-02-23T11:17:26.033Z,35.19
2019-02-23T11:19:55.452Z,36.76
2019-02-23T11:22:25.638Z,37.21
2019-02-23T11:24:55.039Z,34.47
2019-02-23T11:27:26.083Z,28.65
2019-02-23T11:29:56.464Z,27.25
2019-02-23T11:32:25.847Z,26.38
2019-02-23T11:34:55.149Z,31.92
2019-02-23T11:37:25.204Z,31.20
2019-02-23T11:39:54.824Z,29.81
2019-02-23T11:42:24.505Z,29.00
2019-02-23T11:44:55.923Z,28.11
2019-02-23T11:47:26.104Z,28.67
2019-02-23T11:49:55.509Z,22.28
2019-02-23T11:52:25.246Z,20.10
2019-02-23T11:54:54.926Z,22.71
2019-02-23T11:57:25.081Z,23.31
2019-02-23T11:59:54.516Z,20.22
2019-02-23T12:02:26.149Z,19.10
2019-02-23T12:04:58.192Z,17.97
2019-02-23T12:07:28.098Z,21.27
2019-02-23T12:09:58.180Z,23.74
2019-02-23T12:12:27.632Z,23.51
2019-02-23T12:14:57.687Z,24.97
2019-02-23T12:17:29.645Z,27.93
2019-02-23T12:20:00.378Z,28.29
2019-02-23T12:22:29.816Z,31.65
2019-02-23T12:25:00.339Z,27.50
2019-02-23T12:27:32.428Z,27.89
2019-02-23T12:30:02.059Z,29.62
2019-02-23T12:32:34.186Z,28.86
2019-02-23T12:35:03.728Z,29.00
2019-02-23T12:37:32.952Z,27.42
2019-02-23T12:40:03.418Z,27.04
2019-02-23T12:42:33.589Z,29.32
2019-02-23T12:45:03.778Z,30.55
2019-02-23T12:47:35.666Z,31.31
2019-02-23T12:50:08.702Z,25.87
2019-02-23T12:52:37.852Z,29.08
2019-02-23T12:55:09.711Z,31.96
2019-02-23T12:57:39.878Z,31.88
2019-02-23T13:00:17.626Z,27.66
2019-02-23T13:02:47.174Z,28.31
2019-02-23T13:05:17.359Z,25.96
2019-02-23T13:07:47.444Z,27.87
2019-02-23T13:10:17.126Z,25.59
2019-02-23T13:13:11.347Z,24.53
2019-02-23T13:15:43.334Z,23.66
2019-02-23T13:18:34.174Z,24.30
2019-02-23T13:21:23.302Z,24.41
2019-02-23T13:24:10.079Z,25.34
2019-02-23T13:26:45.354Z,22.61
2019-02-23T13:29:32.482Z,23.75
2019-02-23T13:32:26.592Z,26.21
2019-02-23T13:35:02.184Z,25.81
2019-02-23T13:37:45.854Z,27.17
2019-02-23T13:40:17.325Z,30.01
2019-02-23T13:42:58.370Z,31.70
2019-02-23T13:45:38.961Z,29.77
2019-02-23T13:48:15.721Z,30.33
2019-02-23T13:51:02.590Z,35.46
2019-02-23T13:53:54.451Z,36.25
2019-02-23T13:56:57.633Z,36.20
2019-02-23T13:59:39.407Z,36.66
2019-02-23T14:02:17.505Z,43.79
2019-02-23T14:05:05.995Z,40.76
2019-02-23T14:07:46.122Z,35.21
2019-02-23T14:10:27.732Z,39.68
2019-02-23T14:13:34.520Z,42.00
2019-02-23T14:16:24.816Z,35.88
2019-02-23T14:18:59.022Z,33.80
2019-02-23T14:21:58.730Z,41.71
2019-02-23T14:24:34.320Z,41.25
2019-02-23T14:27:23.202Z,38.20
2019-02-23T14:30:01.615Z,42.57
2019-02-23T14:32:43.154Z,43.53
2019-02-23T14:35:28.501Z,41.85
2019-02-23T14:38:27.764Z,38.90
2019-02-23T14:41:23.264Z,44.08
2019-02-23T14:43:58.101Z,47.42
2019-02-23T14:46:40.514Z,44.46
2019-02-23T14:49:16.454Z,37.42
2019-02-23T14:51:57.871Z,45.07
2019-02-23T14:54:42.314Z,41.98
2019-02-23T14:57:31.290Z,39.04
2019-02-23T15:00:27.565Z,42.14
2019-02-23T15:03:20.026Z,47.96
2019-02-23T15:05:55.711Z,44.60
2019-02-23T15:08:33.858Z,48.59
2019-02-23T15:11:25.153Z,43.21
2019-02-23T15:14:13.214Z,37.74
2019-02-23T15:17:07.270Z,44.87
2019-02-23T15:19:42.334Z,46.01
2019-02-23T15:22:14.904Z,32.18
2019-02-23T15:25:13.574Z,36.55
2019-02-23T15:27:48.676Z,40.59
2019-02-23T15:30:24.395Z,27.94
2019-02-23T15:33:12.110Z,28.89
2019-02-23T15:35:56.042Z,38.01
2019-02-23T15:38:48.277Z,35.63
2019-02-23T15:41:36.031Z,30.48
2019-02-23T15:44:21.721Z,33.91
2019-02-23T15:47:15.805Z,38.91
2019-02-23T15:49:44.927Z,39.58
2019-02-23T15:52:14.966Z,39.66
2019-02-23T15:54:44.418Z,39.51
2019-02-23T15:57:13.911Z,37.61
2019-02-23T15:59:44.601Z,43.16
2019-02-23T16:02:16.468Z,34.48
2019-02-23T16:04:46.636Z,36.91
2019-02-23T16:07:16.720Z,41.22
2019-02-23T16:09:46.434Z,33.55
2019-02-23T16:12:16.620Z,35.16
2019-02-23T16:14:45.851Z,42.27
2019-02-23T16:17:17.212Z,34.29
2019-02-23T16:19:47.295Z,43.57
2019-02-23T16:22:18.708Z,44.31
2019-02-23T16:24:48.072Z,35.33
2019-02-23T16:27:17.426Z,44.81
2019-02-23T16:29:46.551Z,44.39
2019-02-23T16:32:15.869Z,36.92
2019-02-23T16:34:47.100Z,46.13
2019-02-23T16:37:17.490Z,39.64
2019-02-23T16:39:46.640Z,46.33
2019-02-23T16:42:16.051Z,45.36
2019-02-23T16:44:45.136Z,42.97
2019-02-23T16:47:14.534Z,43.88
2019-02-23T16:49:44.616Z,44.38
2019-02-23T16:52:14.174Z,46.45
2019-02-23T16:54:45.280Z,47.08
2019-02-23T16:57:17.500Z,44.37
2019-02-23T16:59:47.167Z,45.53
2019-02-23T17:02:17.249Z,41.78
2019-02-23T17:04:53.538Z,40.03
2019-02-23T17:07:21.426Z,46.14
2019-02-23T17:09:51.392Z,38.79
2019-02-23T17:12:20.806Z,45.45
2019-02-23T17:14:49.933Z,42.89
2019-02-23T17:17:19.773Z,41.77
2019-02-23T17:19:49.684Z,42.87
2019-02-23T17:22:19.271Z,46.28
2019-02-23T17:24:51.321Z,46.50
2019-02-23T17:27:21.303Z,46.15
2019-02-23T17:29:50.786Z,39.92
2019-02-23T17:32:20.272Z,43.81
2019-02-23T17:34:50.304Z,45.23
2019-02-23T17:37:21.126Z,45.14
2019-02-23T17:39:50.815Z,48.20
2019-02-23T17:42:28.190Z,41.87
2019-02-23T17:44:52.736Z,46.06
2019-02-23T17:47:22.796Z,47.32
2019-02-23T17:49:52.409Z,41.20
2019-02-23T17:52:23.474Z,41.15
2019-02-23T17:54:54.518Z,46.03
2019-02-23T17:57:26.431Z,42.17
2019-02-23T17:59:55.855Z,41.54
2019-02-23T18:02:26.103Z,43.35
2019-02-23T18:04:55.687Z,41.54
2019-02-23T18:07:25.769Z,42.48
2019-02-23T18:09:55.248Z,45.67
2019-02-23T18:12:26.367Z,40.87
2019-02-23T18:14:57.483Z,44.95
2019-02-23T18:17:27.560Z,42.49
2019-02-23T18:19:57.469Z,41.45
2019-02-23T18:22:27.718Z,42.07
2019-02-23T18:24:57.375Z,46.16
2019-02-23T18:27:27.351Z,45.67
2019-02-23T18:29:58.403Z,43.92
2019-02-23T18:32:28.531Z,40.81
2019-02-23T18:34:57.965Z,43.68
2019-02-23T18:37:28.137Z,43.98
2019-02-23T18:39:57.482Z,45.81
2019-02-23T18:42:27.009Z,46.78
2019-02-23T18:44:57.166Z,46.81
2019-02-23T18:47:27.938Z,45.56
2019-02-23T18:49:58.651Z,45.15
2019-02-23T18:52:27.857Z,45.01
2019-02-23T18:54:57.168Z,45.61
2019-02-23T18:57:26.370Z,47.65
2019-02-23T18:59:55.778Z,45.14
2019-02-23T19:02:25.530Z,47.92
2019-02-23T19:04:54.681Z,42.44
2019-02-23T19:07:25.454Z,47.06
2019-02-23T19:09:55.608Z,46.26
2019-02-23T19:12:24.814Z,44.29
2019-02-23T19:14:54.327Z,42.98
2019-02-23T19:17:23.654Z,44.27
2019-02-23T19:19:54.992Z,45.46
2019-02-23T19:22:25.205Z,46.90
2019-02-23T19:24:55.508Z,46.33
2019-02-23T19:27:26.626Z,44.98
2019-02-23T19:30:00.534Z,43.43
2019-02-23T19:32:30.054Z,42.23
2019-02-23T19:34:59.287Z,48.36
2019-02-23T19:37:32.485Z,47.37
2019-02-23T19:40:02.645Z,42.40
2019-02-23T19:42:32.941Z,44.50
2019-02-23T19:45:02.411Z,44.56
2019-02-23T19:47:31.935Z,43.19
2019-02-23T19:50:02.059Z,44.21
2019-02-23T19:52:31.451Z,47.43
2019-02-23T19:55:01.429Z,42.79
2019-02-23T19:57:31.492Z,45.91
2019-02-23T20:00:00.934Z,47.75
2019-02-23T20:02:30.450Z,45.32
2019-02-23T20:05:00.473Z,46.56
2019-02-23T20:07:29.991Z,43.91
2019-02-23T20:09:59.135Z,48.40
2019-02-23T20:12:28.425Z,46.13
2019-02-23T20:14:59.645Z,44.77
2019-02-23T20:17:29.815Z,48.28
2019-02-23T20:19:59.960Z,45.28
2019-02-23T20:22:30.379Z,44.89
2019-02-23T20:25:00.574Z,45.43
2019-02-23T20:27:30.277Z,46.68
2019-02-23T20:30:02.031Z,45.59
2019-02-23T20:32:31.802Z,45.07
2019-02-23T20:35:01.745Z,47.12
2019-02-23T20:37:31.251Z,46.42
2019-02-23T20:40:00.512Z,46.46
2019-02-23T20:42:29.935Z,46.31
2019-02-23T20:45:00.273Z,46.78
2019-02-23T20:47:31.821Z,48.23
2019-02-23T20:50:02.602Z,48.93
2019-02-23T20:52:33.684Z,47.85
2019-02-23T20:55:03.674Z,47.06
2019-02-23T20:57:33.001Z,48.13
2019-02-23T21:00:02.646Z,48.54
2019-02-23T21:02:32.134Z,46.72
2019-02-23T21:05:04.171Z,46.19
2019-02-23T21:07:33.475Z,47.38
2019-02-23T21:10:02.971Z,47.25
2019-02-23T21:12:33.112Z,46.77
2019-02-23T21:15:02.526Z,47.04
2019-02-23T21:17:32.139Z,47.26
2019-02-23T21:20:01.519Z,47.10
2019-02-23T21:22:33.423Z,48.04
2019-02-23T21:25:03.339Z,46.30
2019-02-23T21:27:32.711Z,46.40
2019-02-23T21:30:01.993Z,47.39
2019-02-23T21:32:31.508Z,47.68
2019-02-23T21:35:01.349Z,47.76
2019-02-23T21:37:31.109Z,49.24
2019-02-23T21:40:03.268Z,48.43
2019-02-23T21:42:33.588Z,47.03
2019-02-23T21:45:02.865Z,48.77
2019-02-23T21:47:32.149Z,48.26
2019-02-23T21:50:01.309Z,48.58
2019-02-23T21:52:30.518Z,48.21
2019-02-23T21:55:00.204Z,48.17
2019-02-23T21:57:30.465Z,49.07
2019-02-23T22:00:01.264Z,48.67
2019-02-23T22:02:30.590Z,48.73
2019-02-23T22:04:59.801Z,49.20
2019-02-23T22:07:29.182Z,48.43
2019-02-23T22:09:58.364Z,49.14
2019-02-23T22:12:27.574Z,49.27
2019-02-23T22:14:57.384Z,48.49
2019-02-23T22:17:27.356Z,48.43
2019-02-23T22:19:57.424Z,50.99
2019-02-23T22:22:28.231Z,48.27
2019-02-23T22:24:57.994Z,51.16
2019-02-23T22:27:31.405Z,49.80
2019-02-23T22:30:00.059Z,50.57
2019-02-23T22:32:30.166Z,50.72
2019-02-23T22:35:00.637Z,49.19
2019-02-23T22:37:30.421Z,50.29
2019-02-23T22:39:59.890Z,51.64
2019-02-23T22:42:30.277Z,50.38
2019-02-23T22:44:59.525Z,51.59
2019-02-23T22:47:28.928Z,51.21
2019-02-23T22:49:59.005Z,51.45
2019-02-23T22:52:30.369Z,51.01
2019-02-23T22:57:41.015Z,50.79
2019-02-23T23:00:14.644Z,51.55
2019-02-23T23:02:44.817Z,50.59
2019-02-23T23:05:14.426Z,50.25
2019-02-23T23:07:44.665Z,51.27
2019-02-23T23:10:13.812Z,50.74
2019-02-23T23:12:45.003Z,51.49
2019-02-23T23:15:16.583Z,51.86
2019-02-23T23:17:46.750Z,53.20
2019-02-23T23:20:16.258Z,52.56
2019-02-23T23:22:46.246Z,53.39
2019-02-23T23:25:15.679Z,53.07
2019-02-23T23:27:49.220Z,52.96
2019-02-23T23:30:18.993Z,52.60
2019-02-23T23:32:49.675Z,51.98
2019-02-23T23:35:19.854Z,51.59
2019-02-23T23:37:49.636Z,51.84
2019-02-23T23:40:19.736Z,52.55
2019-02-23T23:42:57.808Z,51.94
2019-02-23T23:45:22.161Z,53.50
2019-02-23T23:47:52.553Z,51.98
2019-02-23T23:50:21.709Z,52.18
2019-02-23T23:52:50.995Z,51.58
2019-02-23T23:55:20.455Z,52.10
2019-02-23T23:57:57.842Z,52.29
